sensor_id;sensor_type;location;lat;lon;timestamp;pressure;altitude;pressure_sealevel;temperature
77385;BMP280;66444;49.680;18.538;2023-08-17T00:02:25;97712.41103786549;;;22.466333383880556
77385;BMP280;66444;49.680;18.538;2023-08-17T00:07:34;97721.52018442113;;;22.36486266059801
77385;BMP280;66444;49.680;18.538;2023-08-17T00:12:43;97725.48133469069;;;22.31920007551089
77385;BMP280;66444;49.680;18.538;2023-08-17T00:17:51;97727.07895659516;;;22.293831768957897
77385;BMP280;66444;49.680;18.538;2023-08-17T00:23:00;97723.18708158623;;;22.303979109041393
77385;BMP280;66444;49.680;18.538;2023-08-17T00:28:08;97712.34418967977;;;22.303979109041393
77385;BMP280;66444;49.680;18.538;2023-08-17T00:33:17;97705.39353795757;;;22.293831768957897
77385;BMP280;66444;49.680;18.538;2023-08-17T00:38:25;97723.88330250791;;;22.344568236544728
77385;BMP280;66444;49.680;18.538;2023-08-17T00:43:34;97722.70178496352;;;22.3547154602129
77385;BMP280;66444;49.680;18.538;2023-08-17T00:48:42;97718.39210006774;;;22.380083417519927
77385;BMP280;66444;49.680;18.538;2023-08-17T00:53:51;97731.66773235847;;;22.32427371935919
77385;BMP280;66444;49.680;18.538;2023-08-17T00:59:02;97736.39196376807;;;22.283684405591337
77385;BMP280;66444;49.680;18.538;2023-08-17T01:04:11;97733.33245517018;;;22.263389609009028
77385;BMP280;66444;49.680;18.538;2023-08-17T01:09:20;97737.22374463541;;;22.253242175793275
77385;BMP280;66444;49.680;18.538;2023-08-17T01:14:30;97744.17471808425;;;22.263389609009028
77385;BMP280;66444;49.680;18.538;2023-08-17T01:19:44;97740.34990838042;;;22.238020982313902
77385;BMP280;66444;49.680;18.538;2023-08-17T01:24:54;97744.24082175113;;;22.227873490890488
77385;BMP280;66444;49.680;18.538;2023-08-17T01:30:03;97738.05503991061;;;22.222799736447634
77385;BMP280;66444;49.680;18.538;2023-08-17T01:35:15;97734.16408813442;;;22.232947239512576
77385;BMP280;66444;49.680;18.538;2023-08-17T01:40:29;97743.47582139433;;;22.222799736447634
77385;BMP280;66444;49.680;18.538;2023-08-17T01:45:40;97747.43165505046;;;22.177135684527457
77385;BMP280;66444;49.680;18.538;2023-08-17T01:50:49;97745.13642788687;;;22.16191422911361
77385;BMP280;66444;49.680;18.538;2023-08-17T01:55:57;97737.35587064625;;;22.182209491357206
77385;BMP280;66444;49.680;18.538;2023-08-17T02:01:06;97736.52513483113;;;22.212652210099623
77385;BMP280;66444;49.680;18.538;2023-08-17T02:06:15;97745.00582355463;;;22.232947239512576
77385;BMP280;66444;49.680;18.538;2023-08-17T02:11:23;97745.00582355463;;;22.232947239512576
77385;BMP280;66444;49.680;18.538;2023-08-17T02:16:32;97749.02645652564;;;22.151766563067213
77385;BMP280;66444;49.680;18.538;2023-08-17T02:21:40;97755.64676877712;;;21.908215593034402
77385;BMP280;66444;49.680;18.538;2023-08-17T02:26:49;97755.17515106278;;;21.72554356451146
77385;BMP280;66444;49.680;18.538;2023-08-17T02:31:58;97760.47640425284;;;21.796583583112806
77385;BMP280;66444;49.680;18.538;2023-08-17T02:37:06;97764.95192215957;;;21.898067344911397
77385;BMP280;66444;49.680;18.538;2023-08-17T02:42:15;97764.12668240404;;;21.928512019431217
77385;BMP280;66444;49.680;18.538;2023-08-17T02:47:24;97764.47932599907;;;21.948808352695778
77385;BMP280;66444;49.680;18.538;2023-08-17T02:52:33;97763.30095761736;;;21.958956484403462
77385;BMP280;66444;49.680;18.538;2023-08-17T02:57:42;97752.34049430877;;;22.02999275443144
77385;BMP280;66444;49.680;18.538;2023-08-17T03:02:50;97756.10410151722;;;22.090880077844485
77385;BMP280;66444;49.680;18.538;2023-08-17T03:07:59;97750.74748644086;;;22.055362574383615
77385;BMP280;66444;49.680;18.538;2023-08-17T03:13:08;97744.5629712164;;;22.050288622034714
77385;BMP280;66444;49.680;18.538;2023-08-17T03:18:16;97746.92137644414;;;22.02999275443144
77385;BMP280;66444;49.680;18.538;2023-08-17T03:23:30;97747.68659553333;;;22.03506673006341
77385;BMP280;66444;49.680;18.538;2023-08-17T03:28:40;97749.27944993155;;;22.009696793695912
77385;BMP280;66444;49.680;18.538;2023-08-17T03:33:49;97753.16779060596;;;21.99954877840355
77385;BMP280;66444;49.680;18.538;2023-08-17T03:38:58;97764.7709221673;;;22.004622788960113
77385;BMP280;66444;49.680;18.538;2023-08-17T03:44:06;97774.13802669405;;;21.958956484403462
77385;BMP280;66444;49.680;18.538;2023-08-17T03:49:20;97769.77664197636;;;22.01984478570521
77385;BMP280;66444;49.680;18.538;2023-08-17T03:54:29;97757.05596465756;;;21.989400739828124
77385;BMP280;66444;49.680;18.538;2023-08-17T03:59:35;97754.75994028858;;;21.97417863830924
77385;BMP280;66444;49.680;18.538;2023-08-17T04:04:41;97765.65761146146;;;21.93866019770503
77385;BMP280;66444;49.680;18.538;2023-08-17T04:09:46;97771.65952407804;;;22.050288622034714
77385;BMP280;66444;49.680;18.538;2023-08-17T04:14:52;97772.93964062544;;;22.20250466046855
77385;BMP280;66444;49.680;18.538;2023-08-17T04:20:00;97765.0288294627;;;22.293831768957897
77385;BMP280;66444;49.680;18.538;2023-08-17T04:25:12;97771.91488841202;;;22.339494615979493
77385;BMP280;66444;49.680;18.538;2023-08-17T04:30:18;97768.78827875806;;;22.3547154602129
77385;BMP280;66444;49.680;18.538;2023-08-17T04:35:25;97775.7405272031;;;22.36486266059801
77385;BMP280;66444;49.680;18.538;2023-08-17T04:40:31;97773.94142267368;;;22.496774146845564
77385;BMP280;66444;49.680;18.538;2023-08-17T04:45:37;97774.49880366572;;;22.608388484921306
77385;BMP280;66444;49.680;18.538;2023-08-17T04:50:43;97781.16918906302;;;22.76058531482704
77385;BMP280;66444;49.680;18.538;2023-08-17T04:55:50;97771.20725114678;;;22.89248499656096
77385;BMP280;66444;49.680;18.538;2023-08-17T05:00:55;97778.81412969297;;;23.14105447032489
77385;BMP280;66444;49.680;18.538;2023-08-17T05:06:01;97788.0651899164;;;23.166417916538194
77385;BMP280;66444;49.680;18.538;2023-08-17T05:11:08;97777.12812737521;;;23.201926496764646
77385;BMP280;66444;49.680;18.538;2023-08-17T05:16:14;97787.0643542101;;;23.26787024619989
77385;BMP280;66444;49.680;18.538;2023-08-17T05:21:20;97791.48955703847;;;23.36932024755515
77385;BMP280;66444;49.680;18.538;2023-08-17T05:26:26;97789.63292089068;;;23.501201768498866
77385;BMP280;66444;49.680;18.538;2023-08-17T05:31:43;97782.5890895492;;;23.52656314834021
77385;BMP280;66444;49.680;18.538;2023-08-17T05:36:50;97781.1459767905;;;23.643223621323706
77385;BMP280;66444;49.680;18.538;2023-08-17T05:41:56;97790.3990285487;;;23.668584186257796
77385;BMP280;66444;49.680;18.538;2023-08-17T05:47:08;97789.80102407357;;;23.75480901855044
77385;BMP280;66444;49.680;18.538;2023-08-17T05:52:14;97801.6679428303;;;23.977971361251548
77385;BMP280;66444;49.680;18.538;2023-08-17T05:57:20;97796.96527596148;;;24.14533572299406
77385;BMP280;66444;49.680;18.538;2023-08-17T06:02:27;97800.16700991843;;;24.25690844259225
77385;BMP280;66444;49.680;18.538;2023-08-17T06:07:38;97803.22086689663;;;24.277194088930266
77385;BMP280;66444;49.680;18.538;2023-08-17T06:12:45;97804.93590753296;;;24.216336870519445
77385;BMP280;66444;49.680;18.538;2023-08-17T06:17:51;97795.68016452921;;;24.190979448799045
77385;BMP280;66444;49.680;18.538;2023-08-17T06:22:57;97801.30370660589;;;24.11997789382003
77385;BMP280;66444;49.680;18.538;2023-08-17T06:28:07;97797.78206092614;;;24.277194088930266
77385;BMP280;66444;49.680;18.538;2023-08-17T06:33:16;97795.57797280396;;;24.515543457213788
77385;BMP280;66444;49.680;18.538;2023-08-17T06:38:22;97794.77017472599;;;24.799517406802625
77385;BMP280;66444;49.680;18.538;2023-08-17T06:43:28;97790.22066163721;;;25.02262699007988
77385;BMP280;66444;49.680;18.538;2023-08-17T06:48:35;97798.50180769432;;;25.11389584434219
77385;BMP280;66444;49.680;18.538;2023-08-17T06:53:41;97793.60050959328;;;25.189951782254504
77385;BMP280;66444;49.680;18.538;2023-08-17T06:58:47;97791.6395842321;;;25.195022131549194
77385;BMP280;66444;49.680;18.538;2023-08-17T07:03:53;97800.56784510055;;;25.326849170122294
77385;BMP280;66444;49.680;18.538;2023-08-17T07:09:00;97794.57084135956;;;25.377550829527898
77385;BMP280;66444;49.680;18.538;2023-08-17T07:14:16;97798.26952666925;;;25.4383920524735
77385;BMP280;66444;49.680;18.538;2023-08-17T07:19:22;97795.8694820512;;;25.45867227385752
77385;BMP280;66444;49.680;18.538;2023-08-17T07:24:29;97791.48452099407;;;25.610770965646953
77385;BMP280;66444;49.680;18.538;2023-08-17T07:29:35;97795.82280681746;;;25.71216718312353
77385;BMP280;66444;49.680;18.538;2023-08-17T07:34:42;97787.6102506054;;;25.838909180788324
77385;BMP280;66444;49.680;18.538;2023-08-17T07:39:48;97780.27113029097;;;25.93523066593334
77385;BMP280;66444;49.680;18.538;2023-08-17T07:44:54;97777.61826072095;;;26.026480660913514
77385;BMP280;66444;49.680;18.538;2023-08-17T07:50:01;97775.91464562404;;;26.17855979492888
77385;BMP280;66444;49.680;18.538;2023-08-17T07:55:09;97778.76705931113;;;26.3610478406772
77385;BMP280;66444;49.680;18.538;2023-08-17T08:00:15;97780.97664352019;;;26.502977771963923
77385;BMP280;66444;49.680;18.538;2023-08-17T08:05:22;97783.80600868199;;;26.685452406667174
77385;BMP280;66444;49.680;18.538;2023-08-17T08:10:28;97786.17260995718;;;26.573941026302055
77385;BMP280;66444;49.680;18.538;2023-08-17T08:15:34;97779.50628901548;;;26.58407854093239
77385;BMP280;66444;49.680;18.538;2023-08-17T08:20:40;97782.28423602447;;;26.675315124867485
77385;BMP280;66444;49.680;18.538;2023-08-17T08:25:47;97784.24034808803;;;26.979423450725154
77385;BMP280;66444;49.680;18.538;2023-08-17T08:30:53;97775.84402940549;;;27.324054221389815
77385;BMP280;66444;49.680;18.538;2023-08-17T08:35:59;97773.74288339117;;;27.455817697197197
77385;BMP280;66444;49.680;18.538;2023-08-17T08:41:06;97776.50336175426;;;27.729467727942392
77385;BMP280;66444;49.680;18.538;2023-08-17T08:46:15;97776.78987993418;;;28.11457605366595
77385;BMP280;66444;49.680;18.538;2023-08-17T08:51:28;97764.86774851162;;;28.418585193669422
77385;BMP280;66444;49.680;18.538;2023-08-17T08:56:39;97755.83538390305;;;28.59591418164782
77385;BMP280;66444;49.680;18.538;2023-08-17T09:01:48;97748.97177617009;;;28.641511911759153
77385;BMP280;66444;49.680;18.538;2023-08-17T09:06:56;97743.89011839374;;;28.388185222633183
77385;BMP280;66444;49.680;18.538;2023-08-17T09:12:04;97739.66121646304;;;28.28685047244653
77385;BMP280;66444;49.680;18.538;2023-08-17T09:17:13;97734.29462694805;;;28.433785100607203
77385;BMP280;66444;49.680;18.538;2023-08-17T09:22:36;97725.62052618816;;;28.448984955158085
77385;BMP280;66444;49.680;18.538;2023-08-17T09:27:44;97732.9409495468;;;28.388185222633183
77385;BMP280;66444;49.680;18.538;2023-08-17T09:32:51;97726.87111116773;;;28.347651601955295
77385;BMP280;66444;49.680;18.538;2023-08-17T09:37:57;97731.47420104468;;;28.195647206576542
77385;BMP280;66444;49.680;18.538;2023-08-17T09:43:04;97718.62831074414;;;28.438851724611595
77385;BMP280;66444;49.680;18.538;2023-08-17T09:48:11;97720.07105329791;;;28.631379123590886
77385;BMP280;66444;49.680;18.538;2023-08-17T09:53:21;97715.77309209359;;;28.712440777011217
77385;BMP280;66444;49.680;18.538;2023-08-17T09:58:32;97711.36649791228;;;28.975880859512834
77385;BMP280;66444;49.680;18.538;2023-08-17T10:03:42;97705.94280755888;;;29.122792530572042
77385;BMP280;66444;49.680;18.538;2023-08-17T10:08:50;97704.76335924979;;;29.279830627702175
77385;BMP280;66444;49.680;18.538;2023-08-17T10:14:01;97707.5045178414;;;29.279830627702175
77385;BMP280;66444;49.680;18.538;2023-08-17T10:19:18;97696.31866435062;;;29.168384812446313
77385;BMP280;66444;49.680;18.538;2023-08-17T10:24:31;97694.84498953095;;;29.305158829176797
77385;BMP280;66444;49.680;18.538;2023-08-17T10:29:39;97685.99770567668;;;29.502713806461543
77385;BMP280;66444;49.680;18.538;2023-08-17T10:34:52;97689.23860438116;;;29.928186764381827
77385;BMP280;66444;49.680;18.538;2023-08-17T10:40:00;97685.05959861127;;;30.120649133762345
77385;BMP280;66444;49.680;18.538;2023-08-17T10:45:24;97691.61139829215;;;30.49542015288025
77385;BMP280;66444;49.680;18.538;2023-08-17T10:50:33;97700.5265882213;;;30.44477728321217
77385;BMP280;66444;49.680;18.538;2023-08-17T10:55:41;97684.31637094347;;;29.96870585642755
77385;BMP280;66444;49.680;18.538;2023-08-17T11:00:54;97691.12681585763;;;30.014289389690383
77385;BMP280;66444;49.680;18.538;2023-08-17T11:06:13;97717.4355280262;;;29.933251671260223
77385;BMP280;66444;49.680;18.538;2023-08-17T11:11:21;97775.84123777409;;;29.553367502754554
77385;BMP280;66444;49.680;18.538;2023-08-17T11:16:28;97800.45481717584;;;28.418585193669422
77385;BMP280;66444;49.680;18.538;2023-08-17T11:47:34;97782.54064411644;;;20.974479302810504
77385;BMP280;66444;49.680;18.538;2023-08-17T11:52:37;97779.64587283667;;;20.812070266203953
77385;BMP280;66444;49.680;18.538;2023-08-17T11:57:50;97763.24508253776;;;20.95417849919759
77385;BMP280;66444;49.680;18.538;2023-08-17T12:02:53;97759.3680497077;;;20.964328912645577
77385;BMP280;66444;49.680;18.538;2023-08-17T12:07:55;97752.3334212698;;;21.025230904389172
77385;BMP280;66444;49.680;18.538;2023-08-17T12:13:13;97754.8482840833;;;21.16733229216188
77385;BMP280;66444;49.680;18.538;2023-08-17T12:18:15;97752.65723414837;;;21.350027370918543
77385;BMP280;66444;49.680;18.538;2023-08-17T12:23:17;97760.45985424313;;;21.563162095053123
77385;BMP280;66444;49.680;18.538;2023-08-17T12:28:18;97762.00753109404;;;21.806732064066455
77385;BMP280;66444;49.680;18.538;2023-08-17T12:33:20;97754.44663949076;;;22.151766563067213
77385;BMP280;66444;49.680;18.538;2023-08-17T12:38:23;97736.95279481454;;;22.39530412205495
77385;BMP280;66444;49.680;18.538;2023-08-17T12:43:25;97748.46719698337;;;22.831608709320427
77385;BMP280;66444;49.680;18.538;2023-08-17T12:48:28;97734.96122684001;;;23.15627255551517
77385;BMP280;66444;49.680;18.538;2023-08-17T12:53:29;97711.97938974765;;;23.364247802784668
77385;BMP280;66444;49.680;18.538;2023-08-17T12:58:43;97698.31624738603;;;23.399754793941973
77385;BMP280;66444;49.680;18.538;2023-08-17T13:03:45;97697.72511762871;;;23.323668035073204
77385;BMP280;66444;49.680;18.538;2023-08-17T13:08:48;97684.74534754342;;;23.23743479177356
77385;BMP280;66444;49.680;18.538;2023-08-17T13:13:49;97694.06903474385;;;23.06496325857006
77385;BMP280;66444;49.680;18.538;2023-08-17T13:18:51;97679.47661844858;;;23.00408934620209
77385;BMP280;66444;49.680;18.538;2023-08-17T13:23:52;97680.75633596457;;;23.120763608580454
77385;BMP280;66444;49.680;18.538;2023-08-17T13:28:54;97669.30587489992;;;23.206999127799644
77385;BMP280;66444;49.680;18.538;2023-08-17T13:33:56;97675.57885618495;;;23.33888549162075
77385;BMP280;66444;49.680;18.538;2023-08-17T13:38:57;97672.8636632254;;;23.33888549162075
77385;BMP280;66444;49.680;18.538;2023-08-17T13:43:59;97653.51990322913;;;23.318595537915826
77385;BMP280;66444;49.680;18.538;2023-08-17T13:49:00;97672.68802654847;;;23.409899596171453
77385;BMP280;66444;49.680;18.538;2023-08-17T13:54:02;97680.23139629951;;;23.4961294750683
77385;BMP280;66444;49.680;18.538;2023-08-17T13:59:03;97683.19452345619;;;23.5519243826624
77385;BMP280;66444;49.680;18.538;2023-08-17T14:04:10;97678.06663993295;;;23.734520974056796
77385;BMP280;66444;49.680;18.538;2023-08-17T14:09:12;97687.03390258299;;;23.866391598526388
77385;BMP280;66444;49.680;18.538;2023-08-17T14:14:13;97692.84961443908;;;24.013473422219977
77385;BMP280;66444;49.680;18.538;2023-08-17T14:19:20;97685.75514350588;;;24.32790779732168
77385;BMP280;66444;49.680;18.538;2023-08-17T14:24:22;97693.84542663387;;;24.61696482039988
77385;BMP280;66444;49.680;18.538;2023-08-17T14:29:23;97697.65219917588;;;25.02262699007988
77385;BMP280;66444;49.680;18.538;2023-08-17T14:34:25;97705.57732525853;;;25.220373790711164
77385;BMP280;66444;49.680;18.538;2023-08-17T14:39:27;97689.99836843325;;;25.22544410508126
77385;BMP280;66444;49.680;18.538;2023-08-17T14:44:29;97675.06349713853;;;25.271076672477648
77385;BMP280;66444;49.680;18.538;2023-08-17T14:49:31;97675.70712654934;;;25.311638558795675
77385;BMP280;66444;49.680;18.538;2023-08-17T14:54:32;97672.48261277704;;;25.108825401915237
77385;BMP280;66444;49.680;18.538;2023-08-17T14:59:34;97666.95705235959;;;24.890790871111676
77385;BMP280;66444;49.680;18.538;2023-08-17T15:04:35;97664.13266322966;;;24.799517406802625
77385;BMP280;66444;49.680;18.538;2023-08-17T15:09:37;97661.3054576814;;;24.70824205656536
77385;BMP280;66444;49.680;18.538;2023-08-17T15:14:39;97664.02661162733;;;24.70824205656536
77385;BMP280;66444;49.680;18.538;2023-08-17T15:19:41;97668.70335771957;;;24.82994210445322
77385;BMP280;66444;49.680;18.538;2023-08-17T15:24:44;97660.63899709481;;;24.921214940119533
77385;BMP280;66444;49.680;18.538;2023-08-17T15:29:45;97675.22333925261;;;24.982062449492513
77385;BMP280;66444;49.680;18.538;2023-08-17T15:34:47;97675.34473364915;;;24.81980056185275
77385;BMP280;66444;49.680;18.538;2023-08-17T15:39:49;97674.14674390077;;;24.82994210445322
77385;BMP280;66444;49.680;18.538;2023-08-17T15:44:51;97667.6065137474;;;24.931356249889358
77385;BMP280;66444;49.680;18.538;2023-08-17T15:49:55;97668.92398216011;;;24.758950817305596
77385;BMP280;66444;49.680;18.538;2023-08-17T15:54:56;97678.28562847529;;;24.748809111723677
77385;BMP280;66444;49.680;18.538;2023-08-17T15:59:59;97677.29960856763;;;24.561183358775452
77385;BMP280;66444;49.680;18.538;2023-08-17T16:05:00;97671.96475477131;;;24.525685698306187
77385;BMP280;66444;49.680;18.538;2023-08-17T16:10:06;97674.69290294388;;;24.779234158620238
77385;BMP280;66444;49.680;18.538;2023-08-17T16:15:19;97673.71396570315;;;24.718383855279534
77385;BMP280;66444;49.680;18.538;2023-08-17T16:20:26;97672.38389565142;;;24.383692204253748
77385;BMP280;66444;49.680;18.538;2023-08-17T16:25:32;97665.270789757;;;24.155478813918307
77385;BMP280;66444;49.680;18.538;2023-08-17T16:30:34;97662.90967665981;;;23.88667903766036
77385;BMP280;66444;49.680;18.538;2023-08-17T16:35:36;97662.81299234461;;;23.922181832045318
77385;BMP280;66444;49.680;18.538;2023-08-17T16:40:42;97664.70813000911;;;24.079405064461753
77385;BMP280;66444;49.680;18.538;2023-08-17T16:45:54;97663.64524105351;;;24.18083643936552
77385;BMP280;66444;49.680;18.538;2023-08-17T16:50:55;97668.8805017362;;;24.25183701645583
77385;BMP280;66444;49.680;18.538;2023-08-17T16:55:57;97670.50681289088;;;24.226479798462243
77385;BMP280;66444;49.680;18.538;2023-08-17T17:00:59;97669.74441059062;;;24.221408337401225
77385;BMP280;66444;49.680;18.538;2023-08-17T17:06:06;97669.3584648393;;;24.61696482039988
77385;BMP280;66444;49.680;18.538;2023-08-17T17:11:08;97659.64501356712;;;25.45867227385752
77385;BMP280;66444;49.680;18.538;2023-08-17T17:16:20;97646.1282001239;;;26.786823944095524
77385;BMP280;66444;49.680;18.538;2023-08-17T17:21:22;97641.63680125582;;;27.486224094359205
77385;BMP280;66444;49.680;18.538;2023-08-17T17:26:23;97643.44741028713;;;27.060515465261414
77385;BMP280;66444;49.680;18.538;2023-08-17T17:31:25;97637.16221806347;;;26.29008116372861
77385;BMP280;66444;49.680;18.538;2023-08-17T17:36:27;97642.30274196653;;;25.742585594346746
77385;BMP280;66444;49.680;18.538;2023-08-17T17:41:28;97641.61910245992;;;25.266006410494448
77385;BMP280;66444;49.680;18.538;2023-08-17T17:46:30;97640.18704068384;;;24.748809111723677
77385;BMP280;66444;49.680;18.538;2023-08-17T17:51:31;97641.02982375916;;;24.211265397816895
77385;BMP280;66444;49.680;18.538;2023-08-17T17:56:36;97639.17178574669;;;23.764953005872666
77385;BMP280;66444;49.680;18.538;2023-08-17T18:01:44;97637.22943828511;;;23.318595537915826
77385;BMP280;66444;49.680;18.538;2023-08-17T18:06:46;97642.16377569387;;;23.04467204757966
77385;BMP280;66444;49.680;18.538;2023-08-17T18:11:47;97639.42463557016;;;22.72000000574626
77385;BMP280;66444;49.680;18.538;2023-08-17T18:16:54;97655.47166229237;;;22.466333383880556
77385;BMP280;66444;49.680;18.538;2023-08-17T18:21:55;97643.46715862135;;;22.27861071517691
77385;BMP280;66444;49.680;18.538;2023-08-17T18:26:58;97643.33144958425;;;21.95388242146
77385;BMP280;66444;49.680;18.538;2023-08-17T18:32:06;97652.45116966203;;;21.61898139747791
77385;BMP280;66444;49.680;18.538;2023-08-17T18:37:08;97653.33810093302;;;21.55301305530593
77385;BMP280;66444;49.680;18.538;2023-08-17T18:42:15;97667.81686992255;;;21.451521377265454
77385;BMP280;66444;49.680;18.538;2023-08-17T18:47:22;97669.22055620301;;;21.299279494630174
77385;BMP280;66444;49.680;18.538;2023-08-17T18:52:24;97669.33072247758;;;21.22823148993775
77385;BMP280;66444;49.680;18.538;2023-08-17T18:57:35;97672.60636469758;;;21.106432256195696
77385;BMP280;66444;49.680;18.538;2023-08-17T19:02:38;97670.66265657783;;;20.84252241458744
77385;BMP280;66444;49.680;18.538;2023-08-17T19:07:40;97664.77072892891;;;20.624277387419717
77385;BMP280;66444;49.680;18.538;2023-08-17T19:12:43;97671.56628086336;;;20.436476540006698
77385;BMP280;66444;49.680;18.538;2023-08-17T19:17:50;97677.24822990638;;;20.527840109774843
77385;BMP280;66444;49.680;18.538;2023-08-17T19:22:51;97675.80116132242;;;20.446628140890972
77385;BMP280;66444;49.680;18.538;2023-08-17T19:27:59;97675.96477639212;;;20.30450360975228
77385;BMP280;66444;49.680;18.538;2023-08-17T19:33:00;97672.8191366218;;;20.35526289474219
77385;BMP280;66444;49.680;18.538;2023-08-17T19:38:07;97668.18094144508;;;20.36033879122697
77385;BMP280;66444;49.680;18.538;2023-08-17T19:43:09;97662.49522261028;;;20.268971763923766
77385;BMP280;66444;49.680;18.538;2023-08-17T19:48:15;97671.594517603;;;20.060850939294323
77385;BMP280;66444;49.680;18.538;2023-08-17T19:53:17;97660.863559248;;;19.989783050864936
77385;BMP280;66444;49.680;18.538;2023-08-17T19:58:19;97656.33470596912;;;19.88825551690534
77385;BMP280;66444;49.680;18.538;2023-08-17T20:03:22;97657.86780211134;;;19.898408375075086
77385;BMP280;66444;49.680;18.538;2023-08-17T20:08:29;97661.80220920296;;;19.81718485779129
77385;BMP280;66444;49.680;18.538;2023-08-17T20:13:32;97647.3306062984;;;19.614119545323774
77385;BMP280;66444;49.680;18.538;2023-08-17T20:18:34;97655.17460037372;;;19.451660589827224
77385;BMP280;66444;49.680;18.538;2023-08-17T20:23:36;97644.86111914;;;19.32981246165
77385;BMP280;66444;49.680;18.538;2023-08-17T20:28:39;97647.65969910148;;;19.187652074592187
77385;BMP280;66444;49.680;18.538;2023-08-17T20:33:41;97640.77892800319;;;19.106415518792346
77385;BMP280;66444;49.680;18.538;2023-08-17T20:38:45;97651.61003481684;;;19.035332310106604
77385;BMP280;66444;49.680;18.538;2023-08-17T20:43:52;97656.21405653116;;;19.06579668209888
77385;BMP280;66444;49.680;18.538;2023-08-17T20:48:56;97660.52757506004;;;18.933782890066503
77385;BMP280;66444;49.680;18.538;2023-08-17T20:53:58;97662.51136177573;;;18.82207583882846
77385;BMP280;66444;49.680;18.538;2023-08-17T20:59:01;97669.36385116399;;;18.97440293747932
77385;BMP280;66444;49.680;18.538;2023-08-17T21:04:04;97659.36654870272;;;18.943937936844303
77385;BMP280;66444;49.680;18.538;2023-08-17T21:09:11;97673.32632138157;;;18.750988066662103
77385;BMP280;66444;49.680;18.538;2023-08-17T21:14:13;97672.98040214079;;;18.659587826067582
77385;BMP280;66444;49.680;18.538;2023-08-17T21:19:16;97680.3106464543;;;18.61896489155479
77385;BMP280;66444;49.680;18.538;2023-08-17T21:24:23;97681.84660280215;;;18.62912066010758
77385;BMP280;66444;49.680;18.538;2023-08-17T21:29:25;97677.58768342034;;;18.69005478248
77385;BMP280;66444;49.680;18.538;2023-08-17T21:34:27;97690.2180929369;;;18.862696910696105
77385;BMP280;66444;49.680;18.538;2023-08-17T21:39:30;97694.07378893017;;;18.85254167765379
77385;BMP280;66444;49.680;18.538;2023-08-17T21:44:32;97685.32242723028;;;18.598653284600005
77385;BMP280;66444;49.680;18.538;2023-08-17T21:49:34;97702.69044428288;;;18.446313263848424
77385;BMP280;66444;49.680;18.538;2023-08-17T21:54:37;97695.00720255646;;;18.395532092778012
77385;BMP280;66444;49.680;18.538;2023-08-17T21:59:44;97705.00478169743;;;18.42600086526945
77385;BMP280;66444;49.680;18.538;2023-08-17T22:04:46;97708.03710082718;;;18.588497446198016
77385;BMP280;66444;49.680;18.538;2023-08-17T22:09:48;97706.47687332747;;;18.64943212736398
77385;BMP280;66444;49.680;18.538;2023-08-17T22:14:51;97710.27747244091;;;18.781454394431783
77385;BMP280;66444;49.680;18.538;2023-08-17T22:19:53;97714.15863939191;;;18.700210388051346
77385;BMP280;66444;49.680;18.538;2023-08-17T22:24:55;97711.1100757701;;;18.60880909971893
77385;BMP280;66444;49.680;18.538;2023-08-17T22:29:58;97706.43712532612;;;18.756065802508964
77385;BMP280;66444;49.680;18.538;2023-08-17T22:35:00;97699.51056166783;;;18.745910324994476